createdAt,value
2023-01-17T00:00:05.555Z,23.40
2023-01-17T00:01:05.458Z,24.60
2023-01-17T00:02:05.452Z,16.40
2023-01-17T00:03:05.453Z,16.40
2023-01-17T00:04:05.466Z,16.70
2023-01-17T00:05:05.428Z,20.80
2023-01-17T00:06:05.402Z,17.70
2023-01-17T00:07:05.461Z,23.20
2023-01-17T00:08:05.376Z,24.20
2023-01-17T00:09:05.386Z,17.60
2023-01-17T00:10:05.357Z,18.70
2023-01-17T00:11:05.377Z,19.00
2023-01-17T00:12:05.344Z,23.10
2023-01-17T00:13:05.363Z,19.70
2023-01-17T00:14:05.334Z,18.00
2023-01-17T00:15:05.326Z,20.90
2023-01-17T00:16:05.314Z,20.20
2023-01-17T00:17:05.307Z,22.10
2023-01-17T00:18:05.292Z,23.40
2023-01-17T00:19:05.289Z,24.00
2023-01-17T00:20:05.259Z,22.60
2023-01-17T00:21:05.275Z,22.40
2023-01-17T00:22:05.237Z,21.00
2023-01-17T00:23:05.247Z,22.70
2023-01-17T00:24:05.256Z,23.80
2023-01-17T00:25:05.227Z,20.30
2023-01-17T00:26:05.344Z,18.30
2023-01-17T00:27:05.207Z,17.10
2023-01-17T00:28:05.177Z,18.50
2023-01-17T00:29:05.214Z,21.40
2023-01-17T00:30:05.161Z,19.80
2023-01-17T00:31:05.236Z,19.50
2023-01-17T00:32:05.133Z,19.30
2023-01-17T00:33:05.148Z,22.20
2023-01-17T00:34:05.120Z,22.90
2023-01-17T00:35:05.147Z,23.20
2023-01-17T00:36:05.093Z,17.10
2023-01-17T00:37:05.118Z,18.90
2023-01-17T00:38:05.092Z,18.40
2023-01-17T00:39:05.090Z,17.40
2023-01-17T00:40:05.295Z,17.90
2023-01-17T00:41:05.068Z,19.60
2023-01-17T00:42:05.035Z,18.00
2023-01-17T00:43:05.042Z,16.40
2023-01-17T00:44:05.026Z,15.60
2023-01-17T00:45:05.022Z,15.70
2023-01-17T00:46:05.017Z,15.20
2023-01-17T00:47:05.011Z,15.00
2023-01-17T00:48:04.987Z,15.60
2023-01-17T00:49:04.988Z,17.80
2023-01-17T00:50:04.951Z,17.10
2023-01-17T00:51:04.988Z,17.80
2023-01-17T00:52:04.941Z,19.00
2023-01-17T00:53:04.950Z,24.10
2023-01-17T00:54:04.911Z,34.30
2023-01-17T00:55:04.922Z,24.50
2023-01-17T00:56:04.885Z,33.50
2023-01-17T00:57:04.917Z,31.00
2023-01-17T00:58:04.871Z,35.70
2023-01-17T00:59:04.893Z,27.60
2023-01-17T01:00:04.911Z,38.10
2023-01-17T01:01:04.957Z,27.80
2023-01-17T01:02:05.135Z,27.90
2023-01-17T01:03:04.837Z,33.00
2023-01-17T01:04:04.804Z,30.00
2023-01-17T01:05:04.824Z,37.00
2023-01-17T01:06:04.799Z,47.60
2023-01-17T01:07:04.807Z,27.40
2023-01-17T01:08:04.793Z,37.10
2023-01-17T01:09:04.795Z,51.60
2023-01-17T01:10:04.754Z,51.60
2023-01-17T01:11:04.765Z,47.10
2023-01-17T01:12:04.731Z,42.00
2023-01-17T01:13:04.769Z,47.40
2023-01-17T01:14:04.705Z,48.10
2023-01-17T01:15:04.718Z,38.50
2023-01-17T01:16:04.804Z,51.80
2023-01-17T01:17:04.696Z,64.50
2023-01-17T01:18:04.663Z,69.00
2023-01-17T01:19:04.711Z,53.60
2023-01-17T01:20:04.686Z,62.70
2023-01-17T01:21:04.661Z,70.30
2023-01-17T01:22:04.623Z,64.10
2023-01-17T01:23:04.636Z,76.10
2023-01-17T01:24:04.633Z,70.40
2023-01-17T01:25:04.626Z,75.10
2023-01-17T01:26:04.587Z,73.20
2023-01-17T01:27:04.600Z,73.70
2023-01-17T01:28:04.572Z,90.10
2023-01-17T01:29:04.597Z,82.40
2023-01-17T01:30:04.559Z,61.30
2023-01-17T01:31:04.562Z,66.50
2023-01-17T01:32:04.529Z,65.10
2023-01-17T01:33:04.536Z,66.60
2023-01-17T01:34:04.501Z,69.80
2023-01-17T01:35:04.554Z,82.80
2023-01-17T01:36:04.481Z,57.30
2023-01-17T01:37:04.496Z,68.50
2023-01-17T01:38:04.462Z,55.90
2023-01-17T01:39:04.486Z,67.60
2023-01-17T01:40:04.516Z,68.30
2023-01-17T01:41:04.468Z,61.10
2023-01-17T01:42:04.424Z,66.90
2023-01-17T01:43:04.432Z,42.50
2023-01-17T01:44:04.423Z,59.90
2023-01-17T01:45:04.424Z,43.90
2023-01-17T01:46:04.438Z,45.90
2023-01-17T01:47:04.416Z,50.00
2023-01-17T01:48:04.386Z,58.90
2023-01-17T01:49:04.378Z,45.20
2023-01-17T01:50:04.363Z,40.70
2023-01-17T01:51:04.362Z,48.70
2023-01-17T01:52:04.337Z,48.10
2023-01-17T01:53:04.348Z,45.40
2023-01-17T01:54:04.302Z,46.70
2023-01-17T01:55:04.313Z,46.70
2023-01-17T01:56:04.288Z,45.40
2023-01-17T01:57:04.305Z,49.40
2023-01-17T01:58:04.282Z,58.90
2023-01-17T01:59:04.327Z,36.20
2023-01-17T02:00:04.249Z,43.20
2023-01-17T02:01:04.367Z,57.10
2023-01-17T02:02:04.230Z,42.00
2023-01-17T02:03:04.253Z,45.90
2023-01-17T02:04:04.204Z,46.60
2023-01-17T02:05:04.870Z,39.10
2023-01-17T02:06:04.182Z,53.00
2023-01-17T02:07:04.196Z,54.20
2023-01-17T02:08:04.177Z,59.20
2023-01-17T02:09:04.195Z,54.60
2023-01-17T02:10:04.159Z,54.80
2023-01-17T02:11:04.150Z,42.20
2023-01-17T02:12:04.136Z,49.60
2023-01-17T02:13:04.165Z,66.10
2023-01-17T02:14:04.105Z,64.90
2023-01-17T02:15:04.106Z,60.80
2023-01-17T02:16:04.089Z,73.20
2023-01-17T02:17:04.093Z,75.00
2023-01-17T02:18:04.053Z,48.40
2023-01-17T02:19:04.086Z,47.00
2023-01-17T02:20:04.037Z,43.50
2023-01-17T02:21:04.049Z,56.20
2023-01-17T02:22:04.018Z,50.40
2023-01-17T02:23:04.029Z,42.60
2023-01-17T02:24:03.997Z,43.60
2023-01-17T02:25:04.042Z,43.30
2023-01-17T02:26:03.976Z,47.30
2023-01-17T02:27:04.003Z,56.70
2023-01-17T02:28:03.965Z,50.30
2023-01-17T02:29:03.972Z,51.90
2023-01-17T02:30:03.974Z,51.30
2023-01-17T02:31:03.958Z,49.60
2023-01-17T02:32:03.917Z,46.00
2023-01-17T02:33:03.927Z,47.80
2023-01-17T02:34:03.947Z,48.70
2023-01-17T02:35:03.909Z,56.20
2023-01-17T02:36:03.888Z,54.10
2023-01-17T02:37:03.888Z,49.10
2023-01-17T02:38:03.870Z,40.30
2023-01-17T02:39:03.891Z,41.40
2023-01-17T02:40:03.836Z,54.30
2023-01-17T02:41:03.886Z,36.50
2023-01-17T02:42:03.812Z,33.90
2023-01-17T02:43:03.831Z,36.90
2023-01-17T02:44:03.818Z,41.30
2023-01-17T02:45:03.808Z,32.40
2023-01-17T02:46:03.846Z,37.50
2023-01-17T02:47:03.799Z,36.40
2023-01-17T02:48:03.757Z,27.50
2023-01-17T02:49:03.767Z,36.50
2023-01-17T02:50:03.736Z,31.50
2023-01-17T02:51:03.760Z,28.40
2023-01-17T02:52:03.723Z,36.00
2023-01-17T02:53:03.752Z,28.10
2023-01-17T02:54:03.713Z,27.60
2023-01-17T02:55:03.715Z,33.30
2023-01-17T02:56:03.681Z,24.00
2023-01-17T02:57:03.695Z,26.50
2023-01-17T02:58:03.684Z,22.50
2023-01-17T02:59:03.685Z,22.40
2023-01-17T03:00:03.637Z,20.80
2023-01-17T03:01:03.756Z,23.10
2023-01-17T03:02:03.881Z,23.30
2023-01-17T03:03:03.676Z,28.00
2023-01-17T03:04:03.595Z,28.10
2023-01-17T03:05:03.630Z,35.00
2023-01-17T03:06:03.570Z,27.50
2023-01-17T03:07:03.591Z,29.40
2023-01-17T03:08:03.578Z,32.70
2023-01-17T03:09:03.575Z,41.50
2023-01-17T03:10:03.570Z,33.10
2023-01-17T03:11:03.550Z,27.60
2023-01-17T03:12:03.543Z,34.20
2023-01-17T03:13:03.527Z,28.30
2023-01-17T03:14:03.505Z,19.60
2023-01-17T03:15:03.520Z,16.80
2023-01-17T03:16:03.487Z,20.10
2023-01-17T03:17:03.486Z,14.80
2023-01-17T03:18:03.448Z,13.00
2023-01-17T03:19:03.474Z,15.90
2023-01-17T03:20:03.458Z,16.00
2023-01-17T03:21:03.441Z,14.40
2023-01-17T03:22:03.412Z,11.80
2023-01-17T03:23:03.439Z,19.50
2023-01-17T03:24:03.390Z,15.80
2023-01-17T03:25:03.423Z,17.50
2023-01-17T03:26:03.377Z,18.70
2023-01-17T03:27:03.380Z,24.30
2023-01-17T03:28:03.362Z,22.90
2023-01-17T03:29:03.378Z,23.40
2023-01-17T03:30:03.336Z,27.70
2023-01-17T03:31:03.462Z,22.00
2023-01-17T03:32:03.312Z,21.90
2023-01-17T03:33:03.320Z,20.70
2023-01-17T03:34:03.286Z,22.90
2023-01-17T03:35:03.304Z,23.90
2023-01-17T03:36:03.284Z,19.00
2023-01-17T03:37:03.310Z,20.20
2023-01-17T03:38:03.252Z,23.70
2023-01-17T03:39:03.267Z,23.30
2023-01-17T03:40:03.237Z,25.90
2023-01-17T03:41:03.241Z,28.20
2023-01-17T03:42:03.225Z,30.90
2023-01-17T03:43:03.224Z,37.40
2023-01-17T03:44:03.192Z,39.30
2023-01-17T03:45:03.201Z,33.60
2023-01-17T03:46:03.201Z,36.80
2023-01-17T03:47:03.207Z,37.60
2023-01-17T03:48:03.168Z,37.30
2023-01-17T03:49:03.176Z,37.30
2023-01-17T03:50:03.146Z,44.10
2023-01-17T03:51:03.168Z,40.50
2023-01-17T03:52:03.111Z,37.80
2023-01-17T03:53:03.151Z,38.20
2023-01-17T03:54:03.085Z,45.20
2023-01-17T03:55:03.101Z,31.60
2023-01-17T03:56:03.071Z,32.80
2023-01-17T03:57:03.086Z,36.20
2023-01-17T03:58:03.079Z,38.40
2023-01-17T03:59:03.081Z,32.80
2023-01-17T04:00:03.034Z,36.20
2023-01-17T04:01:03.136Z,27.20
2023-01-17T04:02:03.214Z,26.60
2023-01-17T04:03:03.023Z,18.30
2023-01-17T04:04:03.004Z,17.70
2023-01-17T04:05:02.998Z,17.90
2023-01-17T04:06:02.967Z,17.40
2023-01-17T04:07:02.996Z,13.90
2023-01-17T04:08:02.944Z,15.90
2023-01-17T04:09:02.989Z,19.10
2023-01-17T04:10:02.931Z,18.50
2023-01-17T04:11:02.925Z,20.30
2023-01-17T04:12:02.944Z,15.20
2023-01-17T04:13:02.898Z,16.20
2023-01-17T04:14:02.919Z,16.10
2023-01-17T04:15:02.934Z,17.10
2023-01-17T04:16:02.890Z,19.00
2023-01-17T04:17:02.883Z,19.50
2023-01-17T04:18:02.855Z,19.90
2023-01-17T04:19:02.864Z,19.90
2023-01-17T04:20:02.854Z,19.00
2023-01-17T04:21:02.847Z,22.90
2023-01-17T04:22:02.817Z,24.80
2023-01-17T04:23:02.819Z,25.00
2023-01-17T04:24:02.784Z,23.20
2023-01-17T04:25:02.812Z,29.90
2023-01-17T04:26:02.780Z,30.80
2023-01-17T04:27:02.789Z,27.10
2023-01-17T04:28:02.756Z,28.20
2023-01-17T04:29:02.761Z,28.10
2023-01-17T04:30:02.764Z,29.10
2023-01-17T04:31:02.850Z,32.50
2023-01-17T04:32:02.713Z,29.00
2023-01-17T04:33:02.725Z,30.20
2023-01-17T04:34:02.688Z,30.60
2023-01-17T04:35:02.699Z,28.80
2023-01-17T04:36:02.683Z,27.40
2023-01-17T04:37:02.693Z,31.50
2023-01-17T04:38:02.669Z,31.00
2023-01-17T04:39:02.683Z,31.00
2023-01-17T04:40:02.637Z,34.80
2023-01-17T04:41:02.663Z,28.80
2023-01-17T04:42:02.633Z,29.00
2023-01-17T04:43:02.639Z,30.10
2023-01-17T04:44:02.585Z,33.10
2023-01-17T04:45:02.608Z,39.70
2023-01-17T04:46:02.577Z,32.70
2023-01-17T04:47:02.580Z,34.00
2023-01-17T04:48:02.578Z,35.80
2023-01-17T04:49:02.565Z,41.90
2023-01-17T04:50:02.524Z,43.80
2023-01-17T04:51:02.550Z,42.80
2023-01-17T04:52:02.507Z,45.40
2023-01-17T04:53:02.565Z,43.40
2023-01-17T04:54:02.503Z,52.10
2023-01-17T04:55:02.507Z,53.90
2023-01-17T04:56:02.474Z,56.00
2023-01-17T04:57:02.486Z,64.40
2023-01-17T04:58:02.447Z,53.70
2023-01-17T04:59:02.475Z,68.90
2023-01-17T05:00:02.437Z,68.90
2023-01-17T05:01:02.513Z,62.60
2023-01-17T05:02:02.517Z,69.80
2023-01-17T05:03:02.524Z,74.40
2023-01-17T05:04:02.418Z,68.50
2023-01-17T05:05:02.427Z,79.70
2023-01-17T05:06:02.373Z,65.50
2023-01-17T05:07:02.389Z,77.80
2023-01-17T05:08:02.346Z,82.90
2023-01-17T05:09:02.360Z,84.10
2023-01-17T05:10:02.358Z,74.60
2023-01-17T05:11:02.341Z,81.80
2023-01-17T05:12:02.303Z,74.50
2023-01-17T05:13:02.324Z,65.10
2023-01-17T05:14:02.305Z,75.60
2023-01-17T05:15:02.314Z,78.30
2023-01-17T05:16:02.447Z,73.30
2023-01-17T05:17:02.279Z,90.60
2023-01-17T05:18:02.249Z,82.60
2023-01-17T05:19:02.259Z,92.30
2023-01-17T05:20:02.229Z,90.80
2023-01-17T05:21:02.271Z,97.50
2023-01-17T05:22:02.208Z,108.10
2023-01-17T05:23:02.220Z,92.00
2023-01-17T05:24:02.186Z,87.00
2023-01-17T05:25:02.197Z,93.10
2023-01-17T05:26:02.182Z,83.50
2023-01-17T05:27:02.183Z,84.50
2023-01-17T05:28:02.148Z,94.60
2023-01-17T05:29:02.162Z,97.30
2023-01-17T05:30:02.167Z,93.30
2023-01-17T05:31:02.171Z,86.40
2023-01-17T05:32:02.124Z,104.70
2023-01-17T05:33:02.118Z,107.40
2023-01-17T05:34:02.093Z,103.10
2023-01-17T05:35:02.126Z,96.80
2023-01-17T05:36:02.069Z,93.60
2023-01-17T05:37:02.103Z,111.90
2023-01-17T05:38:02.098Z,113.30
2023-01-17T05:39:02.065Z,110.40
2023-01-17T05:40:02.027Z,97.90
2023-01-17T05:41:02.061Z,103.10
2023-01-17T05:42:02.024Z,119.40
2023-01-17T05:43:02.039Z,118.60
2023-01-17T05:44:01.989Z,120.60
2023-01-17T05:45:01.999Z,110.60
2023-01-17T05:46:02.065Z,117.70
2023-01-17T05:47:01.981Z,125.50
2023-01-17T05:48:01.973Z,116.30
2023-01-17T05:49:01.964Z,104.30
2023-01-17T05:50:01.935Z,123.20
2023-01-17T05:51:01.946Z,118.80
2023-01-17T05:52:01.902Z,123.10
2023-01-17T05:53:01.927Z,127.50
2023-01-17T05:54:01.909Z,119.60
2023-01-17T05:55:01.913Z,99.10
2023-01-17T05:56:01.874Z,125.40
2023-01-17T05:57:01.881Z,118.00
2023-01-17T05:58:01.852Z,126.40
2023-01-17T05:59:01.879Z,105.80
2023-01-17T06:00:01.827Z,100.00
2023-01-17T06:01:01.907Z,109.30
2023-01-17T06:02:01.805Z,120.10
2023-01-17T06:03:01.843Z,111.60
2023-01-17T06:04:01.794Z,113.60
2023-01-17T06:05:03.431Z,111.80
2023-01-17T06:06:01.775Z,110.40
2023-01-17T06:07:01.784Z,98.30
2023-01-17T06:08:01.749Z,109.10
2023-01-17T06:09:01.757Z,92.50
2023-01-17T06:10:01.769Z,104.40
2023-01-17T06:11:01.747Z,100.10
2023-01-17T06:12:01.704Z,105.20
2023-01-17T06:13:01.724Z,111.30
2023-01-17T06:14:01.691Z,79.40
2023-01-17T06:15:01.704Z,86.60
2023-01-17T06:16:01.729Z,85.90
2023-01-17T06:17:01.693Z,93.90
2023-01-17T06:18:01.644Z,83.70
2023-01-17T06:19:01.685Z,83.80
2023-01-17T06:20:01.631Z,89.10
2023-01-17T06:21:01.670Z,87.60
2023-01-17T06:22:01.622Z,79.30
2023-01-17T06:23:01.621Z,77.80
2023-01-17T06:24:03.979Z,81.50
2023-01-17T06:25:01.600Z,75.80
2023-01-17T06:26:01.567Z,67.90
2023-01-17T06:27:01.601Z,66.10
2023-01-17T06:28:01.550Z,69.60
2023-01-17T06:29:01.565Z,73.70
2023-01-17T06:30:01.540Z,78.30
2023-01-17T06:31:01.669Z,83.30
2023-01-17T06:32:01.896Z,91.50
2023-01-17T06:33:01.543Z,71.80
2023-01-17T06:34:01.517Z,78.60
2023-01-17T06:35:01.531Z,72.20
2023-01-17T06:36:01.470Z,80.50
2023-01-17T06:37:01.511Z,73.60
2023-01-17T06:38:01.461Z,71.70
2023-01-17T06:39:01.463Z,69.20
2023-01-17T06:40:01.431Z,69.00
2023-01-17T06:41:01.457Z,78.60
2023-01-17T06:42:01.418Z,75.70
2023-01-17T06:43:01.453Z,86.30
2023-01-17T06:44:01.396Z,86.10
2023-01-17T06:45:01.397Z,89.00
2023-01-17T06:46:01.371Z,73.90
2023-01-17T06:47:01.388Z,87.50
2023-01-17T06:48:01.363Z,87.70
2023-01-17T06:49:01.369Z,80.90
2023-01-17T06:50:01.324Z,82.90
2023-01-17T06:51:01.343Z,89.70
2023-01-17T06:52:01.306Z,95.30
2023-01-17T06:53:01.316Z,79.30
2023-01-17T06:54:01.333Z,90.80
2023-01-17T06:55:01.308Z,93.80
2023-01-17T06:56:01.271Z,95.30
2023-01-17T06:57:01.274Z,96.60
2023-01-17T06:58:01.255Z,89.60
2023-01-17T06:59:01.259Z,87.80
2023-01-17T07:00:01.597Z,100.70
2023-01-17T07:01:01.304Z,100.40
2023-01-17T07:02:01.208Z,94.70
2023-01-17T07:03:01.226Z,87.80
2023-01-17T07:04:01.247Z,90.50
2023-01-17T07:05:01.230Z,102.40
2023-01-17T07:06:01.169Z,98.10
2023-01-17T07:07:01.180Z,101.00
2023-01-17T07:08:01.144Z,97.20
2023-01-17T07:09:01.158Z,93.00
2023-01-17T07:10:01.138Z,99.60
2023-01-17T07:11:01.145Z,102.20
2023-01-17T07:12:01.105Z,107.90
2023-01-17T07:13:01.112Z,93.20
2023-01-17T07:14:01.083Z,86.40
2023-01-17T07:15:01.105Z,73.10
2023-01-17T07:16:01.203Z,83.40
2023-01-17T07:17:01.075Z,79.30
2023-01-17T07:18:01.042Z,97.50
2023-01-17T07:19:01.057Z,89.80
2023-01-17T07:20:01.025Z,87.50
2023-01-17T07:21:01.041Z,82.00
2023-01-17T07:22:01.013Z,95.80
2023-01-17T07:23:01.014Z,79.20
2023-01-17T07:24:00.997Z,80.10
2023-01-17T07:25:01.003Z,86.70
2023-01-17T07:26:00.959Z,85.60
2023-01-17T07:27:01.007Z,71.10
2023-01-17T07:28:00.944Z,63.10
2023-01-17T07:29:00.953Z,77.50
2023-01-17T07:30:00.930Z,85.90
2023-01-17T07:31:00.985Z,64.70
2023-01-17T07:32:00.900Z,69.10
2023-01-17T07:33:00.924Z,64.30
2023-01-17T07:34:00.881Z,64.70
2023-01-17T07:35:00.895Z,68.30
2023-01-17T07:36:00.865Z,69.70
2023-01-17T07:37:00.882Z,69.30
2023-01-17T07:38:00.857Z,65.30
2023-01-17T07:39:00.853Z,75.20
2023-01-17T07:40:00.828Z,80.30
2023-01-17T07:41:00.833Z,85.10
2023-01-17T07:42:00.851Z,75.80
2023-01-17T07:43:00.819Z,69.30
2023-01-17T07:44:00.794Z,80.00
2023-01-17T07:45:00.792Z,79.60
2023-01-17T07:46:02.199Z,69.90
2023-01-17T07:47:00.784Z,73.80
2023-01-17T07:48:00.747Z,73.80
2023-01-17T07:49:00.776Z,75.60
2023-01-17T07:50:00.721Z,74.40
2023-01-17T07:51:00.732Z,84.10
2023-01-17T07:52:00.714Z,78.10
2023-01-17T07:53:00.713Z,69.90
2023-01-17T07:54:00.682Z,62.60
2023-01-17T07:55:00.714Z,74.00
2023-01-17T07:56:00.665Z,76.50
2023-01-17T07:57:00.675Z,60.20
2023-01-17T07:58:02.855Z,68.10
2023-01-17T07:59:00.660Z,81.60
2023-01-17T08:00:00.647Z,70.10
2023-01-17T08:01:00.780Z,74.90
2023-01-17T08:02:00.809Z,85.70
2023-01-17T08:03:00.618Z,70.70
2023-01-17T08:04:00.632Z,72.40
2023-01-17T08:05:00.616Z,65.10
2023-01-17T08:06:00.571Z,61.80
2023-01-17T08:07:00.571Z,64.90
2023-01-17T08:08:00.539Z,61.30
2023-01-17T08:09:00.557Z,60.30
2023-01-17T08:10:00.528Z,68.80
2023-01-17T08:11:00.561Z,65.70
2023-01-17T08:12:00.529Z,79.90
2023-01-17T08:13:00.527Z,75.40
2023-01-17T08:14:00.496Z,64.20
2023-01-17T08:15:00.495Z,67.70
2023-01-17T08:16:00.529Z,50.80
2023-01-17T08:17:00.483Z,56.90
2023-01-17T08:18:00.443Z,64.70
2023-01-17T08:19:00.448Z,72.30
2023-01-17T08:20:00.435Z,68.90
2023-01-17T08:21:00.431Z,60.40
2023-01-17T08:22:00.423Z,57.30
2023-01-17T08:23:00.416Z,51.80
2023-01-17T08:24:00.379Z,58.90
2023-01-17T08:25:00.391Z,53.30
2023-01-17T08:26:00.358Z,51.70
2023-01-17T08:27:00.453Z,59.70
2023-01-17T08:28:00.354Z,63.70
2023-01-17T08:29:00.429Z,50.30
2023-01-17T08:30:00.319Z,45.90
2023-01-17T08:31:00.334Z,55.20
2023-01-17T08:32:00.306Z,63.10
2023-01-17T08:33:00.330Z,63.70
2023-01-17T08:34:00.321Z,55.50
2023-01-17T08:35:00.273Z,58.10
2023-01-17T08:36:00.278Z,49.30
2023-01-17T08:37:00.252Z,58.20
2023-01-17T08:38:00.257Z,60.50
2023-01-17T08:39:00.236Z,57.00
2023-01-17T08:40:00.238Z,49.30
2023-01-17T08:41:00.213Z,51.90
2023-01-17T08:42:00.219Z,48.80
2023-01-17T08:43:00.209Z,52.60
2023-01-17T08:44:00.229Z,57.20
2023-01-17T08:45:00.168Z,51.30
2023-01-17T08:46:00.480Z,59.30
2023-01-17T08:47:00.148Z,66.80
2023-01-17T08:48:00.163Z,65.40
2023-01-17T08:49:00.214Z,56.50
2023-01-17T08:50:00.168Z,51.50
2023-01-17T08:51:00.111Z,59.20
2023-01-17T08:52:00.137Z,47.50
2023-01-17T08:53:01.200Z,40.20
2023-01-17T08:54:00.155Z,43.50
2023-01-17T08:55:00.105Z,40.40
2023-01-17T08:56:00.103Z,44.70
2023-01-17T08:57:00.063Z,45.80
2023-01-17T08:58:00.109Z,45.20
2023-01-17T08:59:00.025Z,37.00
2023-01-17T09:00:00.042Z,47.70
2023-01-17T09:01:00.142Z,33.50
2023-01-17T09:02:00.211Z,36.80
2023-01-17T09:02:59.989Z,38.60
2023-01-17T09:04:00.025Z,40.10
2023-01-17T09:04:59.977Z,33.30
2023-01-17T09:06:00.006Z,39.00
2023-01-17T09:06:59.946Z,36.50
2023-01-17T09:07:59.959Z,36.40
2023-01-17T09:08:59.925Z,36.00
2023-01-17T09:09:59.950Z,37.10
2023-01-17T09:10:59.913Z,36.80
2023-01-17T09:11:59.930Z,35.70
2023-01-17T09:12:59.946Z,34.20
2023-01-17T09:13:59.901Z,29.30
2023-01-17T09:14:59.866Z,33.80
2023-01-17T09:15:59.877Z,36.20
2023-01-17T09:16:59.867Z,34.90
2023-01-17T09:17:59.869Z,40.90
2023-01-17T09:18:59.829Z,35.00
2023-01-17T09:19:59.838Z,35.60
2023-01-17T09:20:59.807Z,32.40
2023-01-17T09:21:59.832Z,34.90
2023-01-17T09:22:59.797Z,35.10
2023-01-17T09:23:59.802Z,28.30
2023-01-17T09:24:59.766Z,27.70
2023-01-17T09:25:59.781Z,32.30
2023-01-17T09:26:59.747Z,28.30
2023-01-17T09:27:59.829Z,32.90
2023-01-17T09:28:59.727Z,28.90
2023-01-17T09:29:59.777Z,33.00
2023-01-17T09:30:59.749Z,31.10
2023-01-17T09:31:59.715Z,27.70
2023-01-17T09:32:59.681Z,29.10
2023-01-17T09:33:59.709Z,33.20
2023-01-17T09:34:59.664Z,30.40
2023-01-17T09:35:59.680Z,34.70
2023-01-17T09:36:59.646Z,34.80
2023-01-17T09:37:59.660Z,32.60
2023-01-17T09:38:59.660Z,28.20
2023-01-17T09:39:59.648Z,36.60
2023-01-17T09:40:59.602Z,41.10
2023-01-17T09:41:59.622Z,48.30
2023-01-17T09:42:59.581Z,42.00
2023-01-17T09:43:59.596Z,35.00
2023-01-17T09:44:59.575Z,38.90
2023-01-17T09:45:59.688Z,44.90
2023-01-17T09:46:59.587Z,49.10
2023-01-17T09:47:59.555Z,36.00
2023-01-17T09:48:59.532Z,40.20
2023-01-17T09:49:59.553Z,37.10
2023-01-17T09:50:59.513Z,49.80
2023-01-17T09:51:59.517Z,43.70
2023-01-17T09:52:59.479Z,50.00
2023-01-17T09:53:59.493Z,60.90
2023-01-17T09:54:59.465Z,39.00
2023-01-17T09:55:59.486Z,43.40
2023-01-17T09:56:59.440Z,39.50
2023-01-17T09:57:59.454Z,43.10
2023-01-17T09:58:59.448Z,34.80
2023-01-17T10:00:03.528Z,33.90
2023-01-17T10:00:59.539Z,29.40
2023-01-17T10:01:59.551Z,27.20
2023-01-17T10:02:59.430Z,26.80
2023-01-17T10:03:59.509Z,26.20
2023-01-17T10:04:59.386Z,22.60
2023-01-17T10:05:59.401Z,23.00
2023-01-17T10:06:59.340Z,28.10
2023-01-17T10:07:59.364Z,29.20
2023-01-17T10:08:59.339Z,20.60
2023-01-17T10:09:59.338Z,22.60
2023-01-17T10:10:59.301Z,23.80
2023-01-17T10:11:59.320Z,26.00
2023-01-17T10:12:59.282Z,27.30
2023-01-17T10:13:59.297Z,23.10
2023-01-17T10:14:59.259Z,22.60
2023-01-17T10:16:00.214Z,22.10
2023-01-17T10:16:59.307Z,20.80
2023-01-17T10:17:59.254Z,21.80
2023-01-17T10:18:59.222Z,20.30
2023-01-17T10:19:59.231Z,20.30
2023-01-17T10:20:59.197Z,22.10
2023-01-17T10:21:59.220Z,20.50
2023-01-17T10:22:59.188Z,21.50
2023-01-17T10:23:59.211Z,22.40
2023-01-17T10:24:59.213Z,23.50
2023-01-17T10:25:59.174Z,22.60
2023-01-17T10:26:59.141Z,26.40
2023-01-17T10:27:59.200Z,26.90
2023-01-17T10:28:59.117Z,21.30
2023-01-17T10:29:59.130Z,27.20
2023-01-17T10:30:59.126Z,21.40
2023-01-17T10:31:59.109Z,23.40
2023-01-17T10:32:59.077Z,24.70
2023-01-17T10:33:59.099Z,24.90
2023-01-17T10:34:59.060Z,23.50
2023-01-17T10:35:59.070Z,23.90
2023-01-17T10:36:59.038Z,21.50
2023-01-17T10:37:59.051Z,21.30
2023-01-17T10:38:59.029Z,19.50
2023-01-17T10:39:59.029Z,20.70
2023-01-17T10:40:58.993Z,20.40
2023-01-17T10:41:59.009Z,23.00
2023-01-17T10:42:58.981Z,22.10
2023-01-17T10:43:58.993Z,19.60
2023-01-17T10:44:58.970Z,21.80
2023-01-17T10:45:58.999Z,20.40
2023-01-17T10:46:58.933Z,24.30
2023-01-17T10:47:58.953Z,23.10
2023-01-17T10:48:58.916Z,24.60
2023-01-17T10:49:58.955Z,24.50
2023-01-17T10:50:58.893Z,24.40
2023-01-17T10:51:58.964Z,22.50
2023-01-17T10:52:58.888Z,22.10
2023-01-17T10:54:01.666Z,20.00
2023-01-17T10:54:58.853Z,25.80
2023-01-17T10:55:58.876Z,22.30
2023-01-17T10:56:58.835Z,20.60
2023-01-17T10:57:58.845Z,23.30
2023-01-17T10:58:58.814Z,19.50
2023-01-17T10:59:58.823Z,21.20
2023-01-17T11:00:58.835Z,21.40
2023-01-17T11:01:58.858Z,22.40
2023-01-17T11:02:58.797Z,20.30
2023-01-17T11:03:58.803Z,22.50
2023-01-17T11:04:58.755Z,20.60
2023-01-17T11:05:58.770Z,20.00
2023-01-17T11:06:58.740Z,20.00
2023-01-17T11:07:58.743Z,25.00
2023-01-17T11:08:58.707Z,24.60
2023-01-17T11:09:58.722Z,19.40
2023-01-17T11:10:58.689Z,24.90
2023-01-17T11:11:58.723Z,19.80
2023-01-17T11:12:58.670Z,21.30
2023-01-17T11:13:58.689Z,20.80
2023-01-17T11:14:58.772Z,21.20
2023-01-17T11:15:58.692Z,22.70
2023-01-17T11:16:58.631Z,19.50
2023-01-17T11:17:58.650Z,19.00
2023-01-17T11:18:58.614Z,19.20
2023-01-17T11:19:58.620Z,18.50
2023-01-17T11:20:58.618Z,19.00
2023-01-17T11:21:58.600Z,20.00
2023-01-17T11:22:58.581Z,20.00
2023-01-17T11:23:58.584Z,19.30
2023-01-17T11:24:58.547Z,22.60
2023-01-17T11:25:58.588Z,20.90
2023-01-17T11:26:58.527Z,17.70
2023-01-17T11:27:58.568Z,19.40
2023-01-17T11:28:58.508Z,21.20
2023-01-17T11:29:58.518Z,18.20
2023-01-17T11:30:58.505Z,20.20
2023-01-17T11:31:58.501Z,21.80
2023-01-17T11:32:58.464Z,23.70
2023-01-17T11:33:58.487Z,21.10
2023-01-17T11:34:58.441Z,19.50
2023-01-17T11:35:58.457Z,20.40
2023-01-17T11:36:58.425Z,22.60
2023-01-17T11:37:58.440Z,17.70
2023-01-17T11:38:58.438Z,20.60
2023-01-17T11:39:58.421Z,20.20
2023-01-17T11:40:58.386Z,21.90
2023-01-17T11:41:58.394Z,21.00
2023-01-17T11:42:58.360Z,20.80
2023-01-17T11:43:58.378Z,21.10
2023-01-17T11:44:58.352Z,22.40
2023-01-17T11:45:58.408Z,19.10
2023-01-17T11:46:58.319Z,20.00
2023-01-17T11:47:58.341Z,19.20
2023-01-17T11:48:58.298Z,22.00
2023-01-17T11:49:58.339Z,21.70
2023-01-17T11:50:58.278Z,20.30
2023-01-17T11:51:58.290Z,19.40
2023-01-17T11:52:58.258Z,18.50
2023-01-17T11:53:58.273Z,19.30
2023-01-17T11:54:58.240Z,20.40
2023-01-17T11:55:58.281Z,19.20
2023-01-17T11:56:58.220Z,18.60
2023-01-17T11:57:58.229Z,19.80
2023-01-17T11:58:58.194Z,19.90
2023-01-17T11:59:58.208Z,20.80
2023-01-17T12:00:58.261Z,21.20
2023-01-17T12:01:58.189Z,20.80
2023-01-17T12:02:58.157Z,19.70
2023-01-17T12:03:58.207Z,19.70
2023-01-17T12:04:58.186Z,23.50
2023-01-17T12:05:58.151Z,20.40
2023-01-17T12:06:58.682Z,21.30
2023-01-17T12:07:58.131Z,19.00
2023-01-17T12:08:58.097Z,18.40
2023-01-17T12:09:58.103Z,18.60
2023-01-17T12:10:58.079Z,20.30
2023-01-17T12:11:58.102Z,18.60
2023-01-17T12:12:58.052Z,18.10
2023-01-17T12:13:58.066Z,21.80
2023-01-17T12:14:58.029Z,21.50
2023-01-17T12:15:58.082Z,22.30
2023-01-17T12:16:58.009Z,20.60
2023-01-17T12:17:58.031Z,19.90
2023-01-17T12:18:57.989Z,20.90
2023-01-17T12:19:58.003Z,19.20
2023-01-17T12:20:57.965Z,19.60
2023-01-17T12:21:57.985Z,17.60
2023-01-17T12:22:57.977Z,18.30
2023-01-17T12:23:57.969Z,19.60
2023-01-17T12:24:57.927Z,19.60
2023-01-17T12:25:57.958Z,20.70
2023-01-17T12:26:57.907Z,19.30
2023-01-17T12:27:57.917Z,16.90
2023-01-17T12:28:57.899Z,20.10
2023-01-17T12:29:57.896Z,18.30
2023-01-17T12:30:57.893Z,19.90
2023-01-17T12:31:57.893Z,23.70
2023-01-17T12:32:57.843Z,19.20
2023-01-17T12:33:57.868Z,19.40
2023-01-17T12:34:57.826Z,21.20
2023-01-17T12:35:57.848Z,19.30
2023-01-17T12:36:57.804Z,20.00
2023-01-17T12:38:04.940Z,23.30
2023-01-17T12:38:57.788Z,19.90
2023-01-17T12:39:57.816Z,20.30
2023-01-17T12:40:57.761Z,20.60
2023-01-17T12:41:57.778Z,22.10
2023-01-17T12:42:57.744Z,18.20
2023-01-17T12:43:57.756Z,18.50
2023-01-17T12:44:57.739Z,19.40
2023-01-17T12:45:57.734Z,16.00
2023-01-17T12:46:57.739Z,18.70
2023-01-17T12:47:57.693Z,16.40
2023-01-17T12:48:57.707Z,16.50
2023-01-17T12:49:57.672Z,17.40
2023-01-17T12:50:57.702Z,17.10